createdAt,value
2022-11-04T00:01:57.406Z,11.10
2022-11-04T00:04:26.800Z,11.10
2022-11-04T00:06:54.594Z,11.10
2022-11-04T00:09:23.813Z,11.10
2022-11-04T00:12:09.148Z,11.10
2022-11-04T00:14:36.848Z,11.10
2022-11-04T00:17:20.151Z,11.10
2022-11-04T00:20:10.633Z,11.10
2022-11-04T00:22:57.605Z,11.10
2022-11-04T00:26:03.481Z,11.10
2022-11-04T00:28:45.343Z,11.10
2022-11-04T00:31:30.770Z,11.10
2022-11-04T00:33:59.256Z,11.10
2022-11-04T00:36:26.670Z,11.10
2022-11-04T00:38:53.812Z,11.10
2022-11-04T00:41:27.623Z,11.10
2022-11-04T00:43:56.680Z,11.10
2022-11-04T00:46:23.542Z,11.10
2022-11-04T00:48:50.248Z,11.10
2022-11-04T00:51:16.898Z,11.00
2022-11-04T00:53:43.565Z,11.10
2022-11-04T00:56:10.181Z,11.00
2022-11-04T00:58:37.235Z,11.00
2022-11-04T01:01:11.829Z,11.00
2022-11-04T01:03:39.223Z,10.90
2022-11-04T01:06:06.272Z,11.00
2022-11-04T01:08:33.375Z,11.00
2022-11-04T01:11:07.473Z,10.90
2022-11-04T01:13:34.530Z,10.80
2022-11-04T01:16:03.481Z,10.90
2022-11-04T01:18:30.402Z,10.80
2022-11-04T01:21:01.952Z,10.90
2022-11-04T01:23:28.921Z,10.90
2022-11-04T01:25:56.126Z,10.80
2022-11-04T01:28:22.867Z,10.80
2022-11-04T01:30:49.536Z,10.80
2022-11-04T01:33:16.227Z,10.80
2022-11-04T01:35:42.950Z,10.80
2022-11-04T01:38:10.105Z,10.70
2022-11-04T01:40:39.080Z,10.70
2022-11-04T01:43:17.548Z,10.70
2022-11-04T01:45:52.012Z,10.70
2022-11-04T01:48:37.062Z,10.70
2022-11-04T01:51:04.784Z,10.70
2022-11-04T01:53:37.136Z,10.60
2022-11-04T01:56:12.353Z,10.60
2022-11-04T01:58:46.094Z,10.60
2022-11-04T02:01:13.543Z,10.60
2022-11-04T02:03:54.430Z,10.70
2022-11-04T02:06:22.634Z,10.60
2022-11-04T02:08:49.605Z,10.60
2022-11-04T02:11:36.584Z,10.60
2022-11-04T02:14:03.534Z,10.60
2022-11-04T02:16:48.424Z,10.50
2022-11-04T02:20:00.347Z,10.60
2022-11-04T02:22:50.794Z,10.60
2022-11-04T02:25:45.100Z,10.50
2022-11-04T02:28:28.145Z,10.50
2022-11-04T02:31:31.808Z,10.50
2022-11-04T02:37:59.772Z,10.50
2022-11-04T02:41:02.868Z,10.50
2022-11-04T02:43:53.858Z,10.60
2022-11-04T02:46:41.671Z,10.60
2022-11-04T02:49:15.510Z,10.50
2022-11-04T02:51:59.477Z,10.50
2022-11-04T02:54:33.721Z,10.50
2022-11-04T02:57:04.972Z,10.50
2022-11-04T02:59:53.615Z,10.50
2022-11-04T03:02:37.948Z,10.50
2022-11-04T03:05:07.219Z,10.50
2022-11-04T03:07:38.112Z,10.50
2022-11-04T03:10:13.144Z,10.40
2022-11-04T03:12:51.741Z,10.40
2022-11-04T03:15:26.246Z,10.30
2022-11-04T03:18:22.417Z,10.20
2022-11-04T03:20:50.202Z,10.20
2022-11-04T03:23:17.277Z,10.20
2022-11-04T03:25:50.260Z,10.20
2022-11-04T03:28:19.794Z,10.20
2022-11-04T03:30:51.443Z,10.30
2022-11-04T03:33:36.000Z,10.40
2022-11-04T03:36:04.393Z,10.30
2022-11-04T03:38:31.356Z,10.30
2022-11-04T03:40:59.335Z,10.40
2022-11-04T03:43:27.971Z,10.40
2022-11-04T03:45:55.562Z,10.40
2022-11-04T03:48:23.748Z,10.50
2022-11-04T03:50:51.225Z,10.50
2022-11-04T03:53:22.678Z,10.50
2022-11-04T03:56:20.674Z,10.50
2022-11-04T03:59:07.367Z,10.40
2022-11-04T04:01:57.193Z,10.50
2022-11-04T04:04:35.032Z,10.50
2022-11-04T04:07:06.865Z,10.50
2022-11-04T04:09:46.628Z,10.50
2022-11-04T04:12:19.257Z,10.50
2022-11-04T04:14:51.772Z,10.40
2022-11-04T04:17:23.831Z,10.40
2022-11-04T04:20:01.533Z,10.30
2022-11-04T04:22:34.893Z,10.30
2022-11-04T04:25:24.624Z,10.40
2022-11-04T04:27:53.007Z,10.40
2022-11-04T04:30:19.802Z,10.10
2022-11-04T04:32:50.519Z,10.20
2022-11-04T04:35:36.238Z,10.20
2022-11-04T04:38:25.164Z,10.20
2022-11-04T04:41:18.024Z,10.20
2022-11-04T04:44:03.290Z,10.10
2022-11-04T04:46:31.271Z,10.00
2022-11-04T04:49:05.837Z,10.10
2022-11-04T04:51:33.568Z,10.00
2022-11-04T04:54:00.295Z,9.90
2022-11-04T04:56:26.927Z,9.90
2022-11-04T04:58:53.831Z,9.90
2022-11-04T05:01:20.817Z,9.80
2022-11-04T05:03:47.631Z,9.70
2022-11-04T05:06:14.275Z,9.70
2022-11-04T05:08:40.994Z,9.70
2022-11-04T05:11:07.656Z,9.70
2022-11-04T05:13:34.371Z,9.70
2022-11-04T05:16:07.107Z,9.50
2022-11-04T05:18:35.397Z,9.60
2022-11-04T05:21:11.948Z,9.50
2022-11-04T05:23:38.759Z,9.50
2022-11-04T05:26:06.020Z,9.50
2022-11-04T05:28:33.327Z,9.60
2022-11-04T05:31:05.077Z,9.60
2022-11-04T05:33:32.735Z,9.70
2022-11-04T05:36:07.470Z,9.80
2022-11-04T05:38:38.014Z,9.80
2022-11-04T05:41:06.169Z,9.80
2022-11-04T05:43:33.781Z,9.80
2022-11-04T05:46:01.454Z,9.80
2022-11-04T05:48:28.682Z,9.90
2022-11-04T05:50:55.939Z,9.80
2022-11-04T05:53:22.890Z,9.90
2022-11-04T05:55:49.825Z,9.90
2022-11-04T05:58:16.548Z,9.90
2022-11-04T06:00:43.381Z,9.90
2022-11-04T06:03:13.588Z,9.60
2022-11-04T06:05:42.937Z,9.60
2022-11-04T06:08:10.065Z,9.70
2022-11-04T06:10:36.930Z,9.80
2022-11-04T06:13:03.696Z,9.80
2022-11-04T06:15:30.437Z,9.70
2022-11-04T06:17:57.180Z,9.60
2022-11-04T06:20:23.995Z,9.60
2022-11-04T06:22:50.705Z,9.60
2022-11-04T06:25:17.587Z,9.60
2022-11-04T06:27:44.368Z,9.60
2022-11-04T06:30:11.685Z,9.60
2022-11-04T06:32:38.477Z,9.70
2022-11-04T06:35:05.995Z,9.80
2022-11-04T06:37:32.770Z,9.80
2022-11-04T06:39:59.521Z,9.90
2022-11-04T06:42:27.764Z,9.90
2022-11-04T06:44:54.500Z,9.90
2022-11-04T06:47:24.790Z,9.90
2022-11-04T06:49:51.896Z,9.90
2022-11-04T06:52:18.614Z,9.90
2022-11-04T06:54:46.309Z,9.90
2022-11-04T06:57:12.953Z,9.90
2022-11-04T06:59:39.952Z,9.90
2022-11-04T07:02:07.166Z,9.90
2022-11-04T07:04:33.956Z,9.80
2022-11-04T07:07:03.252Z,9.70
2022-11-04T07:09:29.957Z,9.80
2022-11-04T07:11:56.677Z,9.70
2022-11-04T07:14:23.390Z,9.90
2022-11-04T07:16:51.346Z,9.90
2022-11-04T07:19:18.206Z,9.90
2022-11-04T07:21:44.936Z,9.80
2022-11-04T07:24:11.681Z,9.90
2022-11-04T07:26:38.614Z,9.90
2022-11-04T07:29:06.624Z,10.00
2022-11-04T07:31:33.502Z,10.00
2022-11-04T07:34:00.392Z,10.10
2022-11-04T07:36:27.278Z,10.10
2022-11-04T07:38:54.779Z,10.20
2022-11-04T07:41:22.106Z,10.30
2022-11-04T07:43:53.070Z,10.30
2022-11-04T07:46:20.372Z,10.20
2022-11-04T07:48:47.382Z,10.30
2022-11-04T07:51:17.741Z,10.30
2022-11-04T07:53:44.593Z,10.40
2022-11-04T07:56:12.863Z,10.30
2022-11-04T07:58:40.748Z,10.40
2022-11-04T08:01:12.008Z,10.40
2022-11-04T08:03:39.066Z,10.40
2022-11-04T08:06:08.224Z,10.50
2022-11-04T08:08:35.822Z,10.40
2022-11-04T08:11:06.276Z,10.40
2022-11-04T08:13:35.335Z,10.50
2022-11-04T08:16:04.151Z,10.50
2022-11-04T08:18:32.936Z,10.50
2022-11-04T08:21:00.279Z,10.50
2022-11-04T08:23:27.099Z,10.50
2022-11-04T08:25:53.996Z,10.60
2022-11-04T08:28:20.838Z,10.60
2022-11-04T08:30:59.969Z,10.70
2022-11-04T08:33:28.860Z,10.70
2022-11-04T08:35:59.221Z,10.70
2022-11-04T08:38:25.989Z,10.70
2022-11-04T08:40:57.130Z,10.70
2022-11-04T08:43:27.183Z,10.70
2022-11-04T08:45:54.129Z,10.80
2022-11-04T08:48:21.095Z,10.80
2022-11-04T08:50:58.793Z,10.80
2022-11-04T08:53:25.861Z,10.80
2022-11-04T08:55:52.684Z,10.80
2022-11-04T08:58:19.497Z,10.90
2022-11-04T09:00:46.382Z,10.90
2022-11-04T09:03:13.711Z,11.00
2022-11-04T09:05:45.733Z,10.90
2022-11-04T09:08:13.676Z,11.10
2022-11-04T09:10:45.568Z,11.10
2022-11-04T09:13:12.912Z,11.10
2022-11-04T09:15:40.160Z,11.20
2022-11-04T09:18:07.606Z,11.20
2022-11-04T09:20:38.463Z,11.20
2022-11-04T09:23:09.163Z,11.30
2022-11-04T09:25:39.150Z,11.40
2022-11-04T09:28:06.191Z,11.40
2022-11-04T09:30:33.558Z,11.50
2022-11-04T09:33:00.486Z,11.50
2022-11-04T09:35:30.397Z,11.60
2022-11-04T09:38:00.088Z,11.50
2022-11-04T09:40:27.594Z,11.50
2022-11-04T09:43:28.348Z,11.60
2022-11-04T09:45:56.674Z,11.70
2022-11-04T09:48:39.729Z,11.70
2022-11-04T09:51:12.912Z,11.70
2022-11-04T09:53:51.437Z,11.70
2022-11-04T09:56:35.791Z,11.70
2022-11-04T09:59:06.473Z,11.80
2022-11-04T10:02:22.300Z,11.80
2022-11-04T10:04:55.253Z,11.80
2022-11-04T10:07:47.709Z,11.90
2022-11-04T10:10:17.488Z,11.90
2022-11-04T10:13:06.497Z,12.00
2022-11-04T10:15:51.875Z,12.00
2022-11-04T10:19:07.773Z,12.00
2022-11-04T10:21:37.461Z,12.00
2022-11-04T10:24:23.937Z,12.00
2022-11-04T10:27:16.272Z,12.00
2022-11-04T10:29:51.971Z,12.10
2022-11-04T10:32:22.800Z,12.10
2022-11-04T10:35:16.172Z,12.10
2022-11-04T10:37:43.066Z,12.10
2022-11-04T10:40:31.644Z,12.10
2022-11-04T10:43:00.659Z,12.20
2022-11-04T10:45:35.272Z,12.20
2022-11-04T10:48:14.091Z,12.20
2022-11-04T10:50:52.009Z,12.20
2022-11-04T10:53:25.757Z,12.10
2022-11-04T10:56:18.488Z,12.10
2022-11-04T10:58:48.227Z,12.10
2022-11-04T11:01:31.638Z,12.10
2022-11-04T11:03:59.412Z,12.00
2022-11-04T11:06:34.940Z,12.10
2022-11-04T11:09:14.867Z,12.10
2022-11-04T11:11:52.284Z,12.00
2022-11-04T11:14:31.775Z,12.10
2022-11-04T11:17:21.262Z,12.10
2022-11-04T11:19:59.867Z,12.10
2022-11-04T11:22:34.373Z,12.10
2022-11-04T11:25:25.533Z,12.10
2022-11-04T11:28:09.117Z,12.10
2022-11-04T11:30:45.747Z,12.10
2022-11-04T11:33:28.457Z,12.10
2022-11-04T11:36:00.213Z,12.10
2022-11-04T11:38:33.338Z,12.10
2022-11-04T11:41:24.362Z,12.20
2022-11-04T11:43:54.261Z,12.10
2022-11-04T11:46:26.645Z,12.20
2022-11-04T11:48:57.733Z,12.20
2022-11-04T11:51:34.307Z,12.20
2022-11-04T11:54:22.872Z,12.20
2022-11-04T11:57:15.357Z,12.20
2022-11-04T12:03:12.087Z,12.30
2022-11-04T12:09:19.721Z,12.30
2022-11-04T12:12:20.344Z,12.30
2022-11-04T12:15:12.569Z,12.30
2022-11-04T12:18:08.447Z,12.30
2022-11-04T12:21:12.674Z,12.30
2022-11-04T12:23:45.398Z,12.40
2022-11-04T12:26:33.753Z,12.50
2022-11-04T12:29:00.365Z,12.50
2022-11-04T12:31:48.500Z,12.60
2022-11-04T12:34:30.854Z,12.70
2022-11-04T12:37:11.510Z,12.80
2022-11-04T12:40:12.474Z,12.90
2022-11-04T12:42:41.975Z,12.90
2022-11-04T12:45:08.690Z,13.10
2022-11-04T12:47:42.887Z,13.20
2022-11-04T12:50:23.602Z,13.30
2022-11-04T12:53:02.415Z,13.30
2022-11-04T12:55:46.564Z,13.30
2022-11-04T12:58:19.067Z,13.30
2022-11-04T13:00:56.572Z,13.40
2022-11-04T13:03:48.806Z,13.60
2022-11-04T13:06:34.430Z,13.60
2022-11-04T13:09:30.185Z,13.60
2022-11-04T13:12:09.296Z,13.80
2022-11-04T13:14:59.140Z,13.80
2022-11-04T13:17:39.035Z,13.80
2022-11-04T13:20:17.393Z,13.80
2022-11-04T13:22:48.289Z,13.80
2022-11-04T13:25:24.155Z,13.90
2022-11-04T13:27:51.395Z,13.90
2022-11-04T13:30:35.208Z,13.90
2022-11-04T13:33:30.328Z,14.00
2022-11-04T13:36:02.016Z,13.90
2022-11-04T13:38:39.506Z,14.00
2022-11-04T13:41:11.260Z,14.00
2022-11-04T13:43:41.980Z,14.00
2022-11-04T13:46:08.699Z,14.00
2022-11-04T13:48:38.295Z,13.90
2022-11-04T13:51:07.791Z,14.00
2022-11-04T13:53:52.576Z,14.00
2022-11-04T13:56:33.265Z,14.00
2022-11-04T13:59:23.167Z,14.00
2022-11-04T14:02:09.929Z,13.90
2022-11-04T14:04:38.506Z,13.80
2022-11-04T14:07:08.492Z,13.70
2022-11-04T14:09:43.116Z,13.60
2022-11-04T14:12:18.992Z,13.50
2022-11-04T14:14:53.891Z,13.50
2022-11-04T14:17:35.770Z,13.50
2022-11-04T14:20:06.139Z,13.40
2022-11-04T14:22:44.052Z,13.30
2022-11-04T14:25:37.237Z,13.20
2022-11-04T14:28:10.052Z,13.10
2022-11-04T14:30:43.334Z,13.10
2022-11-04T14:33:33.809Z,13.00
2022-11-04T14:36:19.245Z,13.00
2022-11-04T14:38:56.089Z,12.90
2022-11-04T14:41:25.475Z,12.80
2022-11-04T14:43:53.528Z,12.50
2022-11-04T14:46:27.869Z,12.20
2022-11-04T14:48:57.297Z,12.10
2022-11-04T14:51:28.862Z,12.00
2022-11-04T14:54:22.201Z,11.90
2022-11-04T14:56:49.012Z,11.80
2022-11-04T14:59:27.426Z,11.70
2022-11-04T15:01:55.275Z,11.70
2022-11-04T15:04:29.603Z,11.70
2022-11-04T15:06:58.706Z,11.70
2022-11-04T15:09:28.639Z,11.70
2022-11-04T15:12:31.350Z,11.60
2022-11-04T15:14:59.382Z,11.70
2022-11-04T15:17:30.624Z,11.70
2022-11-04T15:20:00.805Z,11.60
2022-11-04T15:22:29.488Z,11.60
2022-11-04T15:25:00.188Z,11.70
2022-11-04T15:27:29.964Z,11.70
2022-11-04T15:30:06.080Z,11.60
2022-11-04T15:32:32.862Z,11.60
2022-11-04T15:35:00.586Z,11.50
2022-11-04T15:37:28.967Z,11.50
2022-11-04T15:39:57.716Z,11.50
2022-11-04T15:42:39.987Z,11.50
2022-11-04T15:45:31.647Z,11.40
2022-11-04T15:48:31.546Z,11.40
2022-11-04T15:51:16.241Z,11.60
2022-11-04T15:54:33.359Z,11.70
2022-11-04T15:57:05.810Z,11.80
2022-11-04T15:59:37.250Z,11.70
2022-11-04T16:02:07.107Z,11.50
2022-11-04T16:04:34.125Z,11.50
2022-11-04T16:07:10.232Z,11.40
2022-11-04T16:09:54.285Z,11.40
2022-11-04T16:12:27.007Z,11.40
2022-11-04T16:14:59.302Z,11.40
2022-11-04T16:17:27.701Z,11.30
2022-11-04T16:19:59.014Z,11.30
2022-11-04T16:22:40.780Z,11.40
2022-11-04T16:25:12.077Z,11.20
2022-11-04T16:27:39.419Z,11.00
2022-11-04T16:30:23.260Z,11.10
2022-11-04T16:32:53.927Z,11.10
2022-11-04T16:35:26.496Z,11.20
2022-11-04T16:37:56.751Z,11.20
2022-11-04T16:40:24.941Z,11.20
2022-11-04T16:42:53.418Z,11.30
2022-11-04T16:45:30.785Z,11.30
2022-11-04T16:47:57.739Z,11.30
2022-11-04T16:50:24.808Z,11.20
2022-11-04T16:52:51.583Z,11.20
2022-11-04T16:55:19.221Z,11.30
2022-11-04T16:57:46.658Z,11.40
2022-11-04T17:00:19.970Z,11.50
2022-11-04T17:02:46.797Z,11.50
2022-11-04T17:05:13.478Z,11.50
2022-11-04T17:07:52.815Z,11.30
2022-11-04T17:10:27.412Z,11.00
2022-11-04T17:12:54.151Z,11.10
2022-11-04T17:15:21.210Z,11.20
2022-11-04T17:17:47.913Z,11.20
2022-11-04T17:20:17.688Z,11.30
2022-11-04T17:22:46.724Z,11.30
2022-11-04T17:25:18.428Z,11.40
2022-11-04T17:27:45.468Z,11.40
2022-11-04T17:30:14.163Z,11.20
2022-11-04T17:32:41.908Z,11.10
2022-11-04T17:35:09.635Z,11.10
2022-11-04T17:37:36.376Z,11.10
2022-11-04T17:40:04.336Z,11.10
2022-11-04T17:42:49.700Z,11.00
2022-11-04T17:45:16.482Z,10.70
2022-11-04T17:47:43.270Z,10.70
2022-11-04T17:50:10.172Z,10.70
2022-11-04T17:52:38.107Z,10.40
2022-11-04T17:55:05.540Z,10.50
2022-11-04T17:57:34.865Z,10.40
2022-11-04T18:00:05.389Z,10.10
2022-11-04T18:02:32.903Z,10.30
2022-11-04T18:05:01.664Z,10.30
2022-11-04T18:07:29.282Z,10.40
2022-11-04T18:09:56.602Z,10.30
2022-11-04T18:12:38.482Z,10.30
2022-11-04T18:15:10.924Z,10.40
2022-11-04T18:17:39.272Z,10.50
2022-11-04T18:20:13.312Z,10.50
2022-11-04T18:22:41.083Z,10.40
2022-11-04T18:25:08.513Z,10.20
2022-11-04T18:27:35.560Z,10.10
2022-11-04T18:30:02.248Z,10.00
2022-11-04T18:32:28.938Z,9.90
2022-11-04T18:34:55.628Z,9.90
2022-11-04T18:37:23.150Z,9.90
2022-11-04T18:39:49.942Z,9.80
2022-11-04T18:42:16.635Z,9.80
2022-11-04T18:44:43.351Z,9.90
2022-11-04T18:47:10.053Z,9.90
2022-11-04T18:49:36.909Z,10.00
2022-11-04T18:52:03.813Z,10.10
2022-11-04T18:54:30.758Z,10.20
2022-11-04T18:56:57.480Z,10.20
2022-11-04T18:59:24.137Z,10.30
2022-11-04T19:01:52.546Z,10.30
2022-11-04T19:04:19.735Z,10.30
2022-11-04T19:06:46.585Z,10.40
2022-11-04T19:12:20.744Z,10.30
2022-11-04T19:14:47.439Z,10.30
2022-11-04T19:17:14.046Z,10.30
2022-11-04T19:19:42.723Z,10.30
2022-11-04T19:22:10.212Z,10.40
2022-11-04T19:24:37.064Z,10.20
2022-11-04T19:27:04.432Z,10.30
2022-11-04T19:29:32.927Z,10.40
2022-11-04T19:32:00.532Z,10.40
2022-11-04T19:34:27.673Z,10.40
2022-11-04T19:36:54.480Z,10.40
2022-11-04T19:39:21.191Z,10.50
2022-11-04T19:42:06.374Z,10.40
2022-11-04T19:44:33.294Z,10.50
2022-11-04T19:47:00.014Z,10.40
2022-11-04T19:49:31.096Z,10.40
2022-11-04T19:51:58.644Z,10.40
2022-11-04T19:54:25.557Z,10.40
2022-11-04T19:56:52.901Z,10.50
2022-11-04T19:59:20.061Z,10.50
2022-11-04T20:01:50.619Z,10.40
2022-11-04T20:04:17.672Z,10.40
2022-11-04T20:06:44.429Z,10.40
2022-11-04T20:09:13.277Z,10.40
2022-11-04T20:12:00.141Z,10.40
2022-11-04T20:14:28.601Z,10.40
2022-11-04T20:16:55.781Z,10.50
2022-11-04T20:19:23.325Z,10.50
2022-11-04T20:21:50.658Z,10.50
2022-11-04T20:24:17.816Z,10.50
2022-11-04T20:26:46.668Z,10.40
2022-11-04T20:29:16.245Z,10.30
2022-11-04T20:31:44.562Z,10.30
2022-11-04T20:34:12.919Z,10.30
2022-11-04T20:36:40.107Z,10.40
2022-11-04T20:39:18.886Z,10.40
2022-11-04T20:41:46.528Z,10.30
2022-11-04T20:44:14.769Z,10.30
2022-11-04T20:46:42.450Z,10.40
2022-11-04T20:49:09.692Z,10.40
2022-11-04T20:51:41.641Z,10.40
2022-11-04T20:54:10.063Z,10.40
2022-11-04T20:56:41.211Z,10.40
2022-11-04T20:59:09.676Z,10.40
2022-11-04T21:01:39.396Z,10.40
2022-11-04T21:04:10.902Z,10.30
2022-11-04T21:06:38.991Z,10.40
2022-11-04T21:09:08.805Z,10.30
2022-11-04T21:11:35.920Z,10.40
2022-11-04T21:14:03.712Z,10.30
2022-11-04T21:16:30.647Z,10.30
2022-11-04T21:18:58.096Z,10.30
2022-11-04T21:21:27.936Z,10.30
2022-11-04T21:24:01.853Z,10.30
2022-11-04T21:26:34.136Z,10.20
2022-11-04T21:29:04.202Z,10.20
2022-11-04T21:31:33.251Z,10.20
2022-11-04T21:34:01.057Z,10.10
2022-11-04T21:36:28.172Z,10.20
2022-11-04T21:38:57.576Z,10.20
2022-11-04T21:41:26.643Z,10.20
2022-11-04T21:43:54.931Z,10.20
2022-11-04T21:46:24.380Z,10.20
2022-11-04T21:48:54.201Z,10.20
2022-11-04T21:51:25.395Z,10.20
2022-11-04T21:53:52.770Z,10.30
2022-11-04T21:56:24.005Z,10.20
2022-11-04T21:58:52.851Z,10.20
2022-11-04T22:01:22.436Z,10.20
2022-11-04T22:03:52.136Z,10.20
2022-11-04T22:06:21.561Z,10.30
2022-11-04T22:08:53.972Z,10.20
2022-11-04T22:11:30.077Z,10.20
2022-11-04T22:13:58.626Z,10.20
2022-11-04T22:16:31.532Z,10.20
2022-11-04T22:19:00.790Z,10.30
2022-11-04T22:21:29.925Z,10.30
2022-11-04T22:23:58.340Z,10.30
2022-11-04T22:26:28.811Z,10.30
2022-11-04T22:28:56.702Z,10.30
2022-11-04T22:31:29.672Z,10.30
2022-11-04T22:33:57.698Z,10.30
2022-11-04T22:36:24.671Z,10.30
2022-11-04T22:38:51.960Z,10.30
2022-11-04T22:41:22.747Z,10.30
2022-11-04T22:43:49.484Z,10.30
2022-11-04T22:46:20.597Z,10.20
2022-11-04T22:48:50.648Z,10.20
2022-11-04T22:51:17.849Z,10.20
2022-11-04T22:53:45.105Z,10.20
2022-11-04T22:56:13.789Z,10.20
2022-11-04T22:58:40.725Z,10.20
2022-11-04T23:01:14.481Z,10.20
2022-11-04T23:03:41.744Z,10.20
2022-11-04T23:06:13.282Z,10.20
2022-11-04T23:08:54.136Z,10.20
2022-11-04T23:11:45.231Z,10.20
2022-11-04T23:14:37.050Z,10.10
2022-11-04T23:17:36.771Z,10.10
2022-11-04T23:20:07.208Z,10.20
2022-11-04T23:22:52.390Z,10.20
2022-11-04T23:25:19.259Z,10.10
2022-11-04T23:28:13.020Z,10.10
2022-11-04T23:30:43.776Z,10.10
2022-11-04T23:33:13.509Z,10.10
2022-11-04T23:36:07.480Z,10.10
2022-11-04T23:38:35.377Z,10.10
2022-11-04T23:41:23.741Z,10.10
2022-11-04T23:43:50.491Z,10.10
2022-11-04T23:46:42.223Z,10.10
2022-11-04T23:49:30.152Z,10.10
2022-11-04T23:52:15.436Z,10.10
2022-11-04T23:55:00.515Z,10.10
2022-11-04T23:57:45.625Z,10.10
